sensor_id;sensor_type;location;lat;lon;timestamp;pressure;altitude;pressure_sealevel;temperature
77599;BMP280;66758;52.078;5.070;2023-07-24T00:01:08;100588.41;;;18.82
77599;BMP280;66758;52.078;5.070;2023-07-24T00:03:34;100584.50;;;18.76
77599;BMP280;66758;52.078;5.070;2023-07-24T00:05:59;100586.81;;;18.81
77599;BMP280;66758;52.078;5.070;2023-07-24T00:08:25;100583.38;;;18.73
77599;BMP280;66758;52.078;5.070;2023-07-24T00:10:50;100582.19;;;18.71
77599;BMP280;66758;52.078;5.070;2023-07-24T00:13:16;100577.88;;;18.70
77599;BMP280;66758;52.078;5.070;2023-07-24T00:15:41;100570.81;;;18.65
77599;BMP280;66758;52.078;5.070;2023-07-24T00:18:06;100576.94;;;18.50
77599;BMP280;66758;52.078;5.070;2023-07-24T00:20:32;100565.91;;;18.46
77599;BMP280;66758;52.078;5.070;2023-07-24T00:22:57;100566.59;;;18.54
77599;BMP280;66758;52.078;5.070;2023-07-24T00:25:23;100567.91;;;18.46
77599;BMP280;66758;52.078;5.070;2023-07-24T00:27:48;100558.09;;;18.37
77599;BMP280;66758;52.078;5.070;2023-07-24T00:30:14;100564.38;;;18.41
77599;BMP280;66758;52.078;5.070;2023-07-24T00:32:39;100558.00;;;18.44
77599;BMP280;66758;52.078;5.070;2023-07-24T00:35:05;100555.59;;;18.47
77599;BMP280;66758;52.078;5.070;2023-07-24T00:37:31;100542.94;;;18.46
77599;BMP280;66758;52.078;5.070;2023-07-24T00:39:56;100539.63;;;18.54
77599;BMP280;66758;52.078;5.070;2023-07-24T00:42:21;100533.34;;;18.50
77599;BMP280;66758;52.078;5.070;2023-07-24T00:44:47;100530.72;;;18.39
77599;BMP280;66758;52.078;5.070;2023-07-24T00:47:13;100525.28;;;18.32
77599;BMP280;66758;52.078;5.070;2023-07-24T00:49:38;100527.59;;;18.37
77599;BMP280;66758;52.078;5.070;2023-07-24T00:52:04;100523.59;;;18.38
77599;BMP280;66758;52.078;5.070;2023-07-24T00:54:32;100515.66;;;18.40
77599;BMP280;66758;52.078;5.070;2023-07-24T00:56:58;100523.97;;;18.40
77599;BMP280;66758;52.078;5.070;2023-07-24T00:59:23;100528.13;;;18.25
77599;BMP280;66758;52.078;5.070;2023-07-24T01:01:49;100519.75;;;18.29
77599;BMP280;66758;52.078;5.070;2023-07-24T01:04:15;100520.09;;;18.34
77599;BMP280;66758;52.078;5.070;2023-07-24T01:06:40;100521.78;;;18.28
77599;BMP280;66758;52.078;5.070;2023-07-24T01:09:06;100526.16;;;18.26
77599;BMP280;66758;52.078;5.070;2023-07-24T01:11:42;100523.25;;;18.36
77599;BMP280;66758;52.078;5.070;2023-07-24T01:14:13;100518.50;;;18.33
77599;BMP280;66758;52.078;5.070;2023-07-24T01:16:42;100513.81;;;18.30
77599;BMP280;66758;52.078;5.070;2023-07-24T01:19:41;100517.31;;;18.34
77599;BMP280;66758;52.078;5.070;2023-07-24T01:25:18;100516.13;;;18.35
77599;BMP280;66758;52.078;5.070;2023-07-24T01:27:45;100518.03;;;18.38
77599;BMP280;66758;52.078;5.070;2023-07-24T01:30:12;100518.16;;;18.31
77599;BMP280;66758;52.078;5.070;2023-07-24T01:32:38;100520.81;;;18.38
77599;BMP280;66758;52.078;5.070;2023-07-24T01:35:05;100513.19;;;18.46
77599;BMP280;66758;52.078;5.070;2023-07-24T01:37:31;100499.38;;;18.42
77599;BMP280;66758;52.078;5.070;2023-07-24T01:39:57;100486.00;;;18.37
77599;BMP280;66758;52.078;5.070;2023-07-24T01:42:23;100492.22;;;18.45
77599;BMP280;66758;52.078;5.070;2023-07-24T01:44:53;100504.19;;;18.38
77599;BMP280;66758;52.078;5.070;2023-07-24T01:47:19;100499.53;;;18.32
77599;BMP280;66758;52.078;5.070;2023-07-24T01:49:45;100492.91;;;18.22
77599;BMP280;66758;52.078;5.070;2023-07-24T01:52:10;100487.03;;;18.17
77599;BMP280;66758;52.078;5.070;2023-07-24T01:54:36;100486.22;;;18.20
77599;BMP280;66758;52.078;5.070;2023-07-24T01:57:01;100488.19;;;18.19
77599;BMP280;66758;52.078;5.070;2023-07-24T01:59:26;100471.16;;;18.21
77599;BMP280;66758;52.078;5.070;2023-07-24T02:01:52;100464.34;;;18.25
77599;BMP280;66758;52.078;5.070;2023-07-24T02:04:17;100480.63;;;18.23
77599;BMP280;66758;52.078;5.070;2023-07-24T02:06:43;100476.69;;;18.21
77599;BMP280;66758;52.078;5.070;2023-07-24T02:09:08;100486.22;;;18.20
77599;BMP280;66758;52.078;5.070;2023-07-24T02:11:34;100478.16;;;18.29
77599;BMP280;66758;52.078;5.070;2023-07-24T02:13:59;100463.88;;;18.30
77599;BMP280;66758;52.078;5.070;2023-07-24T02:16:25;100467.50;;;18.27
77599;BMP280;66758;52.078;5.070;2023-07-24T02:18:50;100459.66;;;18.22
77599;BMP280;66758;52.078;5.070;2023-07-24T02:21:15;100451.38;;;18.19
77599;BMP280;66758;52.078;5.070;2023-07-24T02:23:41;100450.13;;;18.23
77599;BMP280;66758;52.078;5.070;2023-07-24T02:26:06;100453.38;;;18.18
77599;BMP280;66758;52.078;5.070;2023-07-24T02:28:32;100450.94;;;18.20
77599;BMP280;66758;52.078;5.070;2023-07-24T02:30:58;100449.38;;;18.19
77599;BMP280;66758;52.078;5.070;2023-07-24T02:33:24;100441.91;;;18.16
77599;BMP280;66758;52.078;5.070;2023-07-24T02:35:52;100431.53;;;18.20
77599;BMP280;66758;52.078;5.070;2023-07-24T02:38:18;100430.41;;;18.18
77599;BMP280;66758;52.078;5.070;2023-07-24T02:40:44;100430.00;;;18.16
77599;BMP280;66758;52.078;5.070;2023-07-24T02:43:09;100437.22;;;18.10
77599;BMP280;66758;52.078;5.070;2023-07-24T02:45:35;100431.72;;;18.06
77599;BMP280;66758;52.078;5.070;2023-07-24T02:48:00;100440.06;;;18.06
77599;BMP280;66758;52.078;5.070;2023-07-24T02:50:27;100441.94;;;18.13
77599;BMP280;66758;52.078;5.070;2023-07-24T02:52:53;100438.19;;;17.99
77599;BMP280;66758;52.078;5.070;2023-07-24T02:55:18;100433.22;;;18.14
77599;BMP280;66758;52.078;5.070;2023-07-24T02:57:44;100438.53;;;18.02
77599;BMP280;66758;52.078;5.070;2023-07-24T03:00:10;100436.19;;;18.00
77599;BMP280;66758;52.078;5.070;2023-07-24T03:02:35;100439.81;;;17.93
77599;BMP280;66758;52.078;5.070;2023-07-24T03:05:01;100437.97;;;18.14
77599;BMP280;66758;52.078;5.070;2023-07-24T03:07:27;100432.97;;;18.02
77599;BMP280;66758;52.078;5.070;2023-07-24T03:09:52;100425.50;;;17.98
77599;BMP280;66758;52.078;5.070;2023-07-24T03:12:18;100427.09;;;17.99
77599;BMP280;66758;52.078;5.070;2023-07-24T03:14:43;100425.84;;;18.04
77599;BMP280;66758;52.078;5.070;2023-07-24T03:17:08;100432.56;;;18.03
77599;BMP280;66758;52.078;5.070;2023-07-24T03:19:34;100428.16;;;18.09
77599;BMP280;66758;52.078;5.070;2023-07-24T03:21:59;100430.59;;;18.04
77599;BMP280;66758;52.078;5.070;2023-07-24T03:24:25;100426.31;;;17.99
77599;BMP280;66758;52.078;5.070;2023-07-24T03:26:50;100422.78;;;17.95
77599;BMP280;66758;52.078;5.070;2023-07-24T03:29:16;100434.69;;;17.92
77599;BMP280;66758;52.078;5.070;2023-07-24T03:31:41;100434.69;;;17.92
77599;BMP280;66758;52.078;5.070;2023-07-24T03:34:06;100428.81;;;17.90
77599;BMP280;66758;52.078;5.070;2023-07-24T03:36:32;100416.13;;;17.89
77599;BMP280;66758;52.078;5.070;2023-07-24T03:38:57;100428.94;;;17.79
77599;BMP280;66758;52.078;5.070;2023-07-24T03:41:23;100436.84;;;17.81
77599;BMP280;66758;52.078;5.070;2023-07-24T03:43:48;100425.69;;;17.84
77599;BMP280;66758;52.078;5.070;2023-07-24T03:46:13;100426.66;;;17.71
77599;BMP280;66758;52.078;5.070;2023-07-24T03:48:39;100426.72;;;17.64
77599;BMP280;66758;52.078;5.070;2023-07-24T03:51:04;100426.00;;;17.60
77599;BMP280;66758;52.078;5.070;2023-07-24T03:53:30;100417.28;;;17.61
77599;BMP280;66758;52.078;5.070;2023-07-24T03:55:55;100418.47;;;17.60
77599;BMP280;66758;52.078;5.070;2023-07-24T03:58:20;100425.94;;;17.63
77599;BMP280;66758;52.078;5.070;2023-07-24T04:00:46;100406.97;;;17.62
77599;BMP280;66758;52.078;5.070;2023-07-24T04:03:12;100411.84;;;17.50
77599;BMP280;66758;52.078;5.070;2023-07-24T04:05:37;100408.19;;;17.61
77599;BMP280;66758;52.078;5.070;2023-07-24T04:08:03;100404.63;;;17.60
77599;BMP280;66758;52.078;5.070;2023-07-24T04:10:29;100400.69;;;17.58
77599;BMP280;66758;52.078;5.070;2023-07-24T04:12:56;100409.78;;;17.58
77599;BMP280;66758;52.078;5.070;2023-07-24T04:15:22;100410.50;;;17.62
77599;BMP280;66758;52.078;5.070;2023-07-24T04:17:47;100410.22;;;17.57
77599;BMP280;66758;52.078;5.070;2023-07-24T04:20:13;100405.75;;;17.63
77599;BMP280;66758;52.078;5.070;2023-07-24T04:22:38;100414.47;;;17.65
77599;BMP280;66758;52.078;5.070;2023-07-24T04:25:04;100410.06;;;17.67
77599;BMP280;66758;52.078;5.070;2023-07-24T04:27:30;100412.03;;;17.70
77599;BMP280;66758;52.078;5.070;2023-07-24T04:29:55;100416.81;;;17.66
77599;BMP280;66758;52.078;5.070;2023-07-24T04:32:20;100420.00;;;17.65
77599;BMP280;66758;52.078;5.070;2023-07-24T04:34:46;100421.03;;;17.78
77599;BMP280;66758;52.078;5.070;2023-07-24T04:37:11;100428.22;;;17.72
77599;BMP280;66758;52.078;5.070;2023-07-24T04:39:39;100435.78;;;17.68
77599;BMP280;66758;52.078;5.070;2023-07-24T04:42:05;100423.78;;;17.78
77599;BMP280;66758;52.078;5.070;2023-07-24T04:44:31;100423.50;;;17.69
77599;BMP280;66758;52.078;5.070;2023-07-24T04:46:57;100429.88;;;17.66
77599;BMP280;66758;52.078;5.070;2023-07-24T04:49:23;100426.72;;;17.64
77599;BMP280;66758;52.078;5.070;2023-07-24T04:51:50;100424.56;;;17.78
77599;BMP280;66758;52.078;5.070;2023-07-24T04:54:15;100421.13;;;17.71
77599;BMP280;66758;52.078;5.070;2023-07-24T04:56:41;100416.81;;;17.66
77599;BMP280;66758;52.078;5.070;2023-07-24T04:59:06;100419.09;;;17.75
77599;BMP280;66758;52.078;5.070;2023-07-24T05:01:32;100421.53;;;17.69
77599;BMP280;66758;52.078;5.070;2023-07-24T05:03:57;100421.94;;;17.68
77599;BMP280;66758;52.078;5.070;2023-07-24T05:06:22;100423.06;;;17.74
77599;BMP280;66758;52.078;5.070;2023-07-24T05:08:48;100425.41;;;17.75
77599;BMP280;66758;52.078;5.070;2023-07-24T05:11:14;100420.22;;;17.81
77599;BMP280;66758;52.078;5.070;2023-07-24T05:13:39;100416.50;;;17.91
77599;BMP280;66758;52.078;5.070;2023-07-24T05:16:05;100421.72;;;17.85
77599;BMP280;66758;52.078;5.070;2023-07-24T05:18:30;100414.78;;;18.00
77599;BMP280;66758;52.078;5.070;2023-07-24T05:20:56;100416.03;;;17.96
77599;BMP280;66758;52.078;5.070;2023-07-24T05:23:21;100418.44;;;17.94
77599;BMP280;66758;52.078;5.070;2023-07-24T05:25:46;100424.50;;;17.85
77599;BMP280;66758;52.078;5.070;2023-07-24T05:28:12;100423.19;;;17.93
77599;BMP280;66758;52.078;5.070;2023-07-24T05:30:37;100433.59;;;17.86
77599;BMP280;66758;52.078;5.070;2023-07-24T05:33:03;100427.97;;;17.93
77599;BMP280;66758;52.078;5.070;2023-07-24T05:35:28;100433.16;;;17.87
77599;BMP280;66758;52.078;5.070;2023-07-24T05:37:53;100424.00;;;17.94
77599;BMP280;66758;52.078;5.070;2023-07-24T05:40:19;100423.34;;;17.83
77599;BMP280;66758;52.078;5.070;2023-07-24T05:42:45;100424.84;;;17.87
77599;BMP280;66758;52.078;5.070;2023-07-24T05:45:11;100430.34;;;17.91
77599;BMP280;66758;52.078;5.070;2023-07-24T05:47:37;100423.16;;;17.97
77599;BMP280;66758;52.078;5.070;2023-07-24T05:50:03;100431.84;;;17.99
77599;BMP280;66758;52.078;5.070;2023-07-24T05:52:28;100437.97;;;18.14
77599;BMP280;66758;52.078;5.070;2023-07-24T05:54:54;100431.66;;;18.13
77599;BMP280;66758;52.078;5.070;2023-07-24T05:57:19;100437.81;;;18.24
77599;BMP280;66758;52.078;5.070;2023-07-24T05:59:45;100436.22;;;18.27
77599;BMP280;66758;52.078;5.070;2023-07-24T06:02:10;100437.13;;;18.17
77599;BMP280;66758;52.078;5.070;2023-07-24T06:04:36;100445.06;;;18.18
77599;BMP280;66758;52.078;5.070;2023-07-24T06:07:01;100445.97;;;18.35
77599;BMP280;66758;52.078;5.070;2023-07-24T06:09:27;100442.69;;;18.17
77599;BMP280;66758;52.078;5.070;2023-07-24T06:11:52;100442.63;;;18.20
77599;BMP280;66758;52.078;5.070;2023-07-24T06:14:18;100444.94;;;18.25
77599;BMP280;66758;52.078;5.070;2023-07-24T06:16:43;100444.00;;;18.35
77599;BMP280;66758;52.078;5.070;2023-07-24T06:19:08;100448.66;;;18.42
77599;BMP280;66758;52.078;5.070;2023-07-24T06:21:34;100456.09;;;18.49
77599;BMP280;66758;52.078;5.070;2023-07-24T06:23:59;100458.78;;;18.56
77599;BMP280;66758;52.078;5.070;2023-07-24T06:26:25;100447.31;;;18.77
77599;BMP280;66758;52.078;5.070;2023-07-24T06:28:50;100449.63;;;19.05
77599;BMP280;66758;52.078;5.070;2023-07-24T06:31:15;100454.06;;;19.22
77599;BMP280;66758;52.078;5.070;2023-07-24T06:33:41;100456.69;;;19.29
77599;BMP280;66758;52.078;5.070;2023-07-24T06:36:09;100456.69;;;19.29
77599;BMP280;66758;52.078;5.070;2023-07-24T06:38:35;100456.81;;;19.46
77599;BMP280;66758;52.078;5.070;2023-07-24T06:41:01;100463.00;;;19.33
77599;BMP280;66758;52.078;5.070;2023-07-24T06:43:26;100457.06;;;19.31
77599;BMP280;66758;52.078;5.070;2023-07-24T06:45:52;100456.56;;;19.37
77599;BMP280;66758;52.078;5.070;2023-07-24T06:48:18;100461.91;;;19.47
77599;BMP280;66758;52.078;5.070;2023-07-24T06:50:43;100467.19;;;19.42
77599;BMP280;66758;52.078;5.070;2023-07-24T06:53:09;100478.03;;;19.36
77599;BMP280;66758;52.078;5.070;2023-07-24T06:55:34;100467.13;;;19.45
77599;BMP280;66758;52.078;5.070;2023-07-24T06:58:00;100457.03;;;19.55
77599;BMP280;66758;52.078;5.070;2023-07-24T07:00:25;100464.06;;;19.79
77599;BMP280;66758;52.078;5.070;2023-07-24T07:02:50;100460.19;;;19.93
77599;BMP280;66758;52.078;5.070;2023-07-24T07:05:16;100461.06;;;19.90
77599;BMP280;66758;52.078;5.070;2023-07-24T07:07:41;100457.22;;;19.84
77599;BMP280;66758;52.078;5.070;2023-07-24T07:10:07;100457.69;;;19.98
77599;BMP280;66758;52.078;5.070;2023-07-24T07:12:33;100464.34;;;19.85
77599;BMP280;66758;52.078;5.070;2023-07-24T07:14:58;100462.94;;;19.76
77599;BMP280;66758;52.078;5.070;2023-07-24T07:17:23;100455.28;;;19.61
77599;BMP280;66758;52.078;5.070;2023-07-24T07:19:49;100465.97;;;19.82
77599;BMP280;66758;52.078;5.070;2023-07-24T07:22:14;100455.66;;;20.18
77599;BMP280;66758;52.078;5.070;2023-07-24T07:24:40;100465.28;;;20.14
77599;BMP280;66758;52.078;5.070;2023-07-24T07:27:05;100465.00;;;20.08
77599;BMP280;66758;52.078;5.070;2023-07-24T07:29:31;100457.53;;;20.05
77599;BMP280;66758;52.078;5.070;2023-07-24T07:31:57;100450.78;;;20.06
77599;BMP280;66758;52.078;5.070;2023-07-24T07:34:22;100450.09;;;20.18
77599;BMP280;66758;52.078;5.070;2023-07-24T07:36:47;100446.94;;;20.16
77599;BMP280;66758;52.078;5.070;2023-07-24T07:39:13;100448.53;;;20.17
77599;BMP280;66758;52.078;5.070;2023-07-24T07:41:38;100449.91;;;20.25
77599;BMP280;66758;52.078;5.070;2023-07-24T07:44:04;100441.06;;;20.31
77599;BMP280;66758;52.078;5.070;2023-07-24T07:46:29;100439.69;;;20.55
77599;BMP280;66758;52.078;5.070;2023-07-24T07:48:55;100438.09;;;20.38
77599;BMP280;66758;52.078;5.070;2023-07-24T07:51:20;100446.44;;;20.38
77599;BMP280;66758;52.078;5.070;2023-07-24T07:53:46;100443.56;;;20.25
77599;BMP280;66758;52.078;5.070;2023-07-24T07:56:11;100442.56;;;20.35
77599;BMP280;66758;52.078;5.070;2023-07-24T07:58:36;100440.97;;;20.18
77599;BMP280;66758;52.078;5.070;2023-07-24T08:01:06;100441.31;;;20.20
77599;BMP280;66758;52.078;5.070;2023-07-24T08:03:31;100438.59;;;20.16
77599;BMP280;66758;52.078;5.070;2023-07-24T08:05:58;100442.16;;;20.17
77599;BMP280;66758;52.078;5.070;2023-07-24T08:08:23;100445.69;;;20.37
77599;BMP280;66758;52.078;5.070;2023-07-24T08:10:49;100436.91;;;20.39
77599;BMP280;66758;52.078;5.070;2023-07-24T08:13:14;100440.56;;;20.52
77599;BMP280;66758;52.078;5.070;2023-07-24T08:15:40;100443.16;;;20.59
77599;BMP280;66758;52.078;5.070;2023-07-24T08:18:05;100439.56;;;20.91
77599;BMP280;66758;52.078;5.070;2023-07-24T08:20:31;100450.09;;;20.83
77599;BMP280;66758;52.078;5.070;2023-07-24T08:22:57;100439.81;;;20.80
77599;BMP280;66758;52.078;5.070;2023-07-24T08:25:23;100439.84;;;21.09
77599;BMP280;66758;52.078;5.070;2023-07-24T08:27:48;100444.13;;;20.97
77599;BMP280;66758;52.078;5.070;2023-07-24T08:30:14;100432.06;;;21.16
77599;BMP280;66758;52.078;5.070;2023-07-24T08:32:39;100439.13;;;21.62
77599;BMP280;66758;52.078;5.070;2023-07-24T08:35:05;100438.88;;;21.44
77599;BMP280;66758;52.078;5.070;2023-07-24T08:37:31;100447.88;;;21.36
77599;BMP280;66758;52.078;5.070;2023-07-24T08:39:56;100439.41;;;21.10
77599;BMP280;66758;52.078;5.070;2023-07-24T08:42:22;100449.28;;;21.69
77599;BMP280;66758;52.078;5.070;2023-07-24T08:44:48;100440.84;;;21.85
77599;BMP280;66758;52.078;5.070;2023-07-24T08:47:14;100445.88;;;21.49
77599;BMP280;66758;52.078;5.070;2023-07-24T08:49:41;100439.94;;;21.05
77599;BMP280;66758;52.078;5.070;2023-07-24T08:52:08;100447.13;;;20.90
77599;BMP280;66758;52.078;5.070;2023-07-24T08:54:35;100440.03;;;20.73
77599;BMP280;66758;52.078;5.070;2023-07-24T08:57:02;100444.16;;;20.81
77599;BMP280;66758;52.078;5.070;2023-07-24T08:59:28;100437.94;;;20.61
77599;BMP280;66758;52.078;5.070;2023-07-24T09:01:55;100436.75;;;20.62
77599;BMP280;66758;52.078;5.070;2023-07-24T09:04:20;100431.03;;;20.82
77599;BMP280;66758;52.078;5.070;2023-07-24T09:06:46;100423.09;;;20.80
77599;BMP280;66758;52.078;5.070;2023-07-24T09:09:13;100427.34;;;21.01
77599;BMP280;66758;52.078;5.070;2023-07-24T09:11:50;100435.25;;;20.74
77599;BMP280;66758;52.078;5.070;2023-07-24T09:14:38;100421.38;;;20.86
77599;BMP280;66758;52.078;5.070;2023-07-24T09:17:07;100428.50;;;20.87
77599;BMP280;66758;52.078;5.070;2023-07-24T09:19:34;100425.03;;;20.83
77599;BMP280;66758;52.078;5.070;2023-07-24T09:22:14;100420.41;;;20.77
77599;BMP280;66758;52.078;5.070;2023-07-24T09:24:54;100424.53;;;20.72
77599;BMP280;66758;52.078;5.070;2023-07-24T09:27:21;100411.81;;;20.87
77599;BMP280;66758;52.078;5.070;2023-07-24T09:29:49;100413.25;;;21.20
77599;BMP280;66758;52.078;5.070;2023-07-24T09:32:23;100411.31;;;21.05
77599;BMP280;66758;52.078;5.070;2023-07-24T09:34:49;100411.84;;;21.29
77599;BMP280;66758;52.078;5.070;2023-07-24T09:37:33;100404.56;;;21.18
77599;BMP280;66758;52.078;5.070;2023-07-24T09:39:59;100405.69;;;22.13
77599;BMP280;66758;52.078;5.070;2023-07-24T09:42:32;100402.91;;;22.13
77599;BMP280;66758;52.078;5.070;2023-07-24T09:44:57;100398.69;;;21.83
77599;BMP280;66758;52.078;5.070;2023-07-24T09:47:23;100400.41;;;22.40
77599;BMP280;66758;52.078;5.070;2023-07-24T09:49:50;100394.84;;;22.75
77599;BMP280;66758;52.078;5.070;2023-07-24T09:52:18;100389.88;;;23.44
77599;BMP280;66758;52.078;5.070;2023-07-24T09:54:59;100393.22;;;23.60
77599;BMP280;66758;52.078;5.070;2023-07-24T09:57:28;100400.41;;;23.40
77599;BMP280;66758;52.078;5.070;2023-07-24T09:59:56;100399.94;;;23.32
77599;BMP280;66758;52.078;5.070;2023-07-24T10:02:22;100407.03;;;22.68
77599;BMP280;66758;52.078;5.070;2023-07-24T10:04:49;100412.97;;;22.23
77599;BMP280;66758;52.078;5.070;2023-07-24T10:07:14;100414.56;;;22.80
77599;BMP280;66758;52.078;5.070;2023-07-24T10:09:43;100410.78;;;22.52
77599;BMP280;66758;52.078;5.070;2023-07-24T10:12:09;100415.31;;;22.93
77599;BMP280;66758;52.078;5.070;2023-07-24T10:14:36;100404.03;;;22.62
77599;BMP280;66758;52.078;5.070;2023-07-24T10:17:02;100401.38;;;22.59
77599;BMP280;66758;52.078;5.070;2023-07-24T10:19:42;100410.44;;;23.06
77599;BMP280;66758;52.078;5.070;2023-07-24T10:22:20;100409.59;;;22.75
77599;BMP280;66758;52.078;5.070;2023-07-24T10:24:46;100400.91;;;22.95
77599;BMP280;66758;52.078;5.070;2023-07-24T10:27:12;100393.22;;;24.00
77599;BMP280;66758;52.078;5.070;2023-07-24T10:29:37;100374.94;;;24.72
77599;BMP280;66758;52.078;5.070;2023-07-24T10:32:04;100377.59;;;24.67
77599;BMP280;66758;52.078;5.070;2023-07-24T10:34:38;100376.00;;;25.44
77599;BMP280;66758;52.078;5.070;2023-07-24T10:37:06;100369.66;;;25.34
77599;BMP280;66758;52.078;5.070;2023-07-24T10:39:38;100370.88;;;27.05
77599;BMP280;66758;52.078;5.070;2023-07-24T10:42:06;100368.09;;;26.90
77599;BMP280;66758;52.078;5.070;2023-07-24T10:44:32;100383.22;;;26.78
77599;BMP280;66758;52.078;5.070;2023-07-24T10:46:57;100382.06;;;25.09
77599;BMP280;66758;52.078;5.070;2023-07-24T10:49:22;100387.84;;;24.88
77599;BMP280;66758;52.078;5.070;2023-07-24T10:51:57;100384.72;;;24.22
77599;BMP280;66758;52.078;5.070;2023-07-24T10:54:23;100377.94;;;23.83
77599;BMP280;66758;52.078;5.070;2023-07-24T10:56:48;100372.47;;;25.43
77599;BMP280;66758;52.078;5.070;2023-07-24T10:59:14;100367.88;;;27.58
77599;BMP280;66758;52.078;5.070;2023-07-24T11:01:42;100374.94;;;25.41
77599;BMP280;66758;52.078;5.070;2023-07-24T11:04:08;100371.63;;;25.52
77599;BMP280;66758;52.078;5.070;2023-07-24T11:06:34;100375.09;;;24.32
77599;BMP280;66758;52.078;5.070;2023-07-24T11:09:00;100380.47;;;24.08
77599;BMP280;66758;52.078;5.070;2023-07-24T11:11:30;100381.78;;;24.35
77599;BMP280;66758;52.078;5.070;2023-07-24T11:13:56;100400.84;;;23.60
77599;BMP280;66758;52.078;5.070;2023-07-24T11:16:22;100399.03;;;23.75
77599;BMP280;66758;52.078;5.070;2023-07-24T11:18:48;100393.22;;;24.00
77599;BMP280;66758;52.078;5.070;2023-07-24T11:21:14;100398.41;;;23.71
77599;BMP280;66758;52.078;5.070;2023-07-24T11:23:59;100397.47;;;24.23
77599;BMP280;66758;52.078;5.070;2023-07-24T11:26:28;100386.75;;;25.54
77599;BMP280;66758;52.078;5.070;2023-07-24T11:28:54;100400.59;;;26.53
77599;BMP280;66758;52.078;5.070;2023-07-24T11:31:20;100391.19;;;26.17
77599;BMP280;66758;52.078;5.070;2023-07-24T11:33:46;100400.03;;;25.45
77599;BMP280;66758;52.078;5.070;2023-07-24T11:36:13;100393.28;;;24.82
77599;BMP280;66758;52.078;5.070;2023-07-24T11:38:39;100398.47;;;23.89
77599;BMP280;66758;52.078;5.070;2023-07-24T11:41:04;100395.59;;;23.71
77599;BMP280;66758;52.078;5.070;2023-07-24T11:43:30;100397.34;;;24.72
77599;BMP280;66758;52.078;5.070;2023-07-24T11:45:56;100395.38;;;26.46
77599;BMP280;66758;52.078;5.070;2023-07-24T11:48:23;100390.19;;;26.68
77599;BMP280;66758;52.078;5.070;2023-07-24T11:50:55;100393.38;;;26.76
77599;BMP280;66758;52.078;5.070;2023-07-24T11:53:29;100395.91;;;25.13
77599;BMP280;66758;52.078;5.070;2023-07-24T11:55:59;100396.41;;;24.39
77599;BMP280;66758;52.078;5.070;2023-07-24T11:58:27;100389.72;;;24.73
77599;BMP280;66758;52.078;5.070;2023-07-24T12:00:53;100383.22;;;25.36
77599;BMP280;66758;52.078;5.070;2023-07-24T12:03:20;100383.81;;;24.89
77599;BMP280;66758;52.078;5.070;2023-07-24T12:05:46;100391.59;;;23.20
77599;BMP280;66758;52.078;5.070;2023-07-24T12:08:12;100392.41;;;22.98
77599;BMP280;66758;52.078;5.070;2023-07-24T12:10:40;100384.56;;;22.25
77599;BMP280;66758;52.078;5.070;2023-07-24T12:13:06;100380.94;;;21.90
77599;BMP280;66758;52.078;5.070;2023-07-24T12:15:32;100387.91;;;21.02
77599;BMP280;66758;52.078;5.070;2023-07-24T12:18:01;100387.50;;;20.75
77599;BMP280;66758;52.078;5.070;2023-07-24T12:20:27;100389.78;;;19.79
77599;BMP280;66758;52.078;5.070;2023-07-24T12:22:53;100387.69;;;19.28
77599;BMP280;66758;52.078;5.070;2023-07-24T12:25:19;100391.59;;;19.30
77599;BMP280;66758;52.078;5.070;2023-07-24T12:27:46;100404.94;;;19.19
77599;BMP280;66758;52.078;5.070;2023-07-24T12:30:12;100407.00;;;19.35
77599;BMP280;66758;52.078;5.070;2023-07-24T12:32:38;100398.53;;;19.42
77599;BMP280;66758;52.078;5.070;2023-07-24T12:35:04;100398.59;;;19.39
77599;BMP280;66758;52.078;5.070;2023-07-24T12:37:30;100397.81;;;19.38
77599;BMP280;66758;52.078;5.070;2023-07-24T12:39:55;100403.56;;;19.27
77599;BMP280;66758;52.078;5.070;2023-07-24T12:42:20;100395.59;;;19.49
77599;BMP280;66758;52.078;5.070;2023-07-24T12:44:46;100396.81;;;19.48
77599;BMP280;66758;52.078;5.070;2023-07-24T12:47:11;100392.75;;;19.53
77599;BMP280;66758;52.078;5.070;2023-07-24T12:49:37;100393.94;;;19.52
77599;BMP280;66758;52.078;5.070;2023-07-24T12:52:03;100389.13;;;19.56
77599;BMP280;66758;52.078;5.070;2023-07-24T12:54:29;100396.88;;;19.64
77599;BMP280;66758;52.078;5.070;2023-07-24T12:56:54;100392.06;;;19.85
77599;BMP280;66758;52.078;5.070;2023-07-24T12:59:20;100383.81;;;19.61
77599;BMP280;66758;52.078;5.070;2023-07-24T13:01:46;100389.03;;;19.40
77599;BMP280;66758;52.078;5.070;2023-07-24T13:04:12;100394.59;;;19.40
77599;BMP280;66758;52.078;5.070;2023-07-24T13:06:37;100408.00;;;19.45
77599;BMP280;66758;52.078;5.070;2023-07-24T13:09:04;100392.41;;;19.51
77599;BMP280;66758;52.078;5.070;2023-07-24T13:11:30;100401.13;;;19.10
77599;BMP280;66758;52.078;5.070;2023-07-24T13:13:56;100408.69;;;19.09
77599;BMP280;66758;52.078;5.070;2023-07-24T13:16:23;100405.41;;;19.14
77599;BMP280;66758;52.078;5.070;2023-07-24T13:18:48;100418.22;;;19.08
77599;BMP280;66758;52.078;5.070;2023-07-24T13:21:14;100408.53;;;19.16
77599;BMP280;66758;52.078;5.070;2023-07-24T13:23:42;100397.53;;;19.32
77599;BMP280;66758;52.078;5.070;2023-07-24T13:26:08;100401.41;;;19.74
77599;BMP280;66758;52.078;5.070;2023-07-24T13:28:39;100415.38;;;19.71
77599;BMP280;66758;52.078;5.070;2023-07-24T13:31:16;100406.72;;;19.69
77599;BMP280;66758;52.078;5.070;2023-07-24T13:33:42;100413.41;;;19.52
77599;BMP280;66758;52.078;5.070;2023-07-24T13:36:08;100413.47;;;19.48
77599;BMP280;66758;52.078;5.070;2023-07-24T13:38:34;100411.34;;;19.56
77599;BMP280;66758;52.078;5.070;2023-07-24T13:40:59;100394.59;;;19.95
77599;BMP280;66758;52.078;5.070;2023-07-24T13:43:25;100408.72;;;20.53
77599;BMP280;66758;52.078;5.070;2023-07-24T13:45:50;100412.34;;;20.17
77599;BMP280;66758;52.078;5.070;2023-07-24T13:48:16;100404.47;;;21.76
77599;BMP280;66758;52.078;5.070;2023-07-24T13:50:41;100398.03;;;23.07
77599;BMP280;66758;52.078;5.070;2023-07-24T13:53:06;100414.06;;;22.26
77599;BMP280;66758;52.078;5.070;2023-07-24T13:55:32;100406.16;;;21.99